sensor_id;sensor_type;location;lat;lon;timestamp;P1;durP1;ratioP1;P2;durP2;ratioP2
31724;SDS011;18306;40.960;14.836;2022-07-06T00:00:49;8.05;;;2.10;;
31724;SDS011;18306;40.960;14.836;2022-07-06T00:03:16;10.15;;;1.95;;
31724;SDS011;18306;40.960;14.836;2022-07-06T00:05:43;2.95;;;1.42;;
31724;SDS011;18306;40.960;14.836;2022-07-06T00:08:10;2.15;;;1.55;;
31724;SDS011;18306;40.960;14.836;2022-07-06T00:10:37;3.22;;;1.90;;
31724;SDS011;18306;40.960;14.836;2022-07-06T00:13:04;10.98;;;2.67;;
31724;SDS011;18306;40.960;14.836;2022-07-06T00:15:31;10.63;;;2.67;;
31724;SDS011;18306;40.960;14.836;2022-07-06T00:17:58;12.50;;;2.20;;
31724;SDS011;18306;40.960;14.836;2022-07-06T00:20:25;4.30;;;2.38;;
31724;SDS011;18306;40.960;14.836;2022-07-06T00:22:52;6.72;;;2.45;;
31724;SDS011;18306;40.960;14.836;2022-07-06T00:25:19;8.48;;;2.65;;
31724;SDS011;18306;40.960;14.836;2022-07-06T00:27:47;13.38;;;2.70;;
31724;SDS011;18306;40.960;14.836;2022-07-06T00:30:14;8.57;;;3.08;;
31724;SDS011;18306;40.960;14.836;2022-07-06T00:32:41;8.57;;;2.08;;
31724;SDS011;18306;40.960;14.836;2022-07-06T00:35:08;2.88;;;1.98;;
31724;SDS011;18306;40.960;14.836;2022-07-06T00:37:36;2.63;;;2.15;;
31724;SDS011;18306;40.960;14.836;2022-07-06T00:40:03;4.45;;;3.47;;
31724;SDS011;18306;40.960;14.836;2022-07-06T00:42:38;7.40;;;3.35;;
31724;SDS011;18306;40.960;14.836;2022-07-06T00:45:09;6.28;;;2.65;;
31724;SDS011;18306;40.960;14.836;2022-07-06T00:47:37;5.53;;;2.78;;
31724;SDS011;18306;40.960;14.836;2022-07-06T00:50:06;5.43;;;2.50;;
31724;SDS011;18306;40.960;14.836;2022-07-06T00:52:42;7.40;;;3.00;;
31724;SDS011;18306;40.960;14.836;2022-07-06T00:55:11;4.63;;;2.55;;
31724;SDS011;18306;40.960;14.836;2022-07-06T00:57:40;7.78;;;3.05;;
31724;SDS011;18306;40.960;14.836;2022-07-06T01:00:09;6.32;;;2.97;;
31724;SDS011;18306;40.960;14.836;2022-07-06T01:02:38;6.25;;;2.85;;
31724;SDS011;18306;40.960;14.836;2022-07-06T01:05:06;6.57;;;3.45;;
31724;SDS011;18306;40.960;14.836;2022-07-06T01:07:35;3.85;;;2.55;;
31724;SDS011;18306;40.960;14.836;2022-07-06T01:10:03;7.82;;;2.58;;
31724;SDS011;18306;40.960;14.836;2022-07-06T01:12:32;9.45;;;3.33;;
31724;SDS011;18306;40.960;14.836;2022-07-06T01:15:02;3.95;;;2.22;;
31724;SDS011;18306;40.960;14.836;2022-07-06T01:17:30;4.28;;;2.67;;
31724;SDS011;18306;40.960;14.836;2022-07-06T01:20:04;7.22;;;2.85;;
31724;SDS011;18306;40.960;14.836;2022-07-06T01:22:42;10.30;;;3.30;;
31724;SDS011;18306;40.960;14.836;2022-07-06T01:25:10;3.97;;;2.50;;
31724;SDS011;18306;40.960;14.836;2022-07-06T01:27:38;5.55;;;2.40;;
31724;SDS011;18306;40.960;14.836;2022-07-06T01:30:07;6.72;;;2.83;;
31724;SDS011;18306;40.960;14.836;2022-07-06T01:32:35;4.88;;;2.25;;
31724;SDS011;18306;40.960;14.836;2022-07-06T01:35:03;4.28;;;2.55;;
31724;SDS011;18306;40.960;14.836;2022-07-06T01:37:32;5.50;;;2.72;;
31724;SDS011;18306;40.960;14.836;2022-07-06T01:39:59;4.82;;;3.13;;
31724;SDS011;18306;40.960;14.836;2022-07-06T01:42:27;4.35;;;2.92;;
31724;SDS011;18306;40.960;14.836;2022-07-06T01:44:56;8.20;;;2.17;;
31724;SDS011;18306;40.960;14.836;2022-07-06T01:47:31;5.22;;;2.90;;
31724;SDS011;18306;40.960;14.836;2022-07-06T01:49:59;4.18;;;2.03;;
31724;SDS011;18306;40.960;14.836;2022-07-06T01:52:38;8.10;;;2.53;;
31724;SDS011;18306;40.960;14.836;2022-07-06T01:55:06;8.10;;;2.30;;
31724;SDS011;18306;40.960;14.836;2022-07-06T01:57:35;8.63;;;2.92;;
31724;SDS011;18306;40.960;14.836;2022-07-06T02:00:04;5.65;;;2.22;;
31724;SDS011;18306;40.960;14.836;2022-07-06T02:02:38;13.63;;;2.05;;
31724;SDS011;18306;40.960;14.836;2022-07-06T02:05:06;4.53;;;2.20;;
31724;SDS011;18306;40.960;14.836;2022-07-06T02:07:34;3.47;;;1.92;;
31724;SDS011;18306;40.960;14.836;2022-07-06T02:10:01;3.03;;;1.88;;
31724;SDS011;18306;40.960;14.836;2022-07-06T02:12:29;10.07;;;2.35;;
31724;SDS011;18306;40.960;14.836;2022-07-06T02:14:56;7.32;;;2.65;;
31724;SDS011;18306;40.960;14.836;2022-07-06T02:17:23;6.78;;;2.63;;
31724;SDS011;18306;40.960;14.836;2022-07-06T02:19:50;8.75;;;2.22;;
31724;SDS011;18306;40.960;14.836;2022-07-06T02:22:18;8.48;;;2.42;;
31724;SDS011;18306;40.960;14.836;2022-07-06T02:24:45;6.45;;;2.13;;
31724;SDS011;18306;40.960;14.836;2022-07-06T02:27:12;8.27;;;2.65;;
31724;SDS011;18306;40.960;14.836;2022-07-06T02:29:39;9.48;;;2.95;;
31724;SDS011;18306;40.960;14.836;2022-07-06T02:32:07;4.03;;;2.65;;
31724;SDS011;18306;40.960;14.836;2022-07-06T02:34:34;4.90;;;2.28;;
31724;SDS011;18306;40.960;14.836;2022-07-06T02:37:01;12.73;;;3.92;;
31724;SDS011;18306;40.960;14.836;2022-07-06T02:39:29;6.90;;;2.63;;
31724;SDS011;18306;40.960;14.836;2022-07-06T02:41:57;3.90;;;2.55;;
31724;SDS011;18306;40.960;14.836;2022-07-06T02:44:24;3.47;;;2.05;;
31724;SDS011;18306;40.960;14.836;2022-07-06T02:46:52;4.00;;;2.55;;
31724;SDS011;18306;40.960;14.836;2022-07-06T02:49:20;6.80;;;3.10;;
31724;SDS011;18306;40.960;14.836;2022-07-06T02:51:47;14.48;;;3.03;;
31724;SDS011;18306;40.960;14.836;2022-07-06T02:54:14;9.15;;;2.63;;
31724;SDS011;18306;40.960;14.836;2022-07-06T02:56:42;3.58;;;1.85;;
31724;SDS011;18306;40.960;14.836;2022-07-06T02:59:09;9.30;;;3.17;;
31724;SDS011;18306;40.960;14.836;2022-07-06T03:01:36;7.07;;;3.10;;
31724;SDS011;18306;40.960;14.836;2022-07-06T03:04:03;14.98;;;2.70;;
31724;SDS011;18306;40.960;14.836;2022-07-06T03:06:30;10.02;;;3.30;;
31724;SDS011;18306;40.960;14.836;2022-07-06T03:08:57;3.13;;;2.50;;
31724;SDS011;18306;40.960;14.836;2022-07-06T03:11:25;6.45;;;3.70;;
31724;SDS011;18306;40.960;14.836;2022-07-06T03:13:52;13.18;;;2.67;;
31724;SDS011;18306;40.960;14.836;2022-07-06T03:16:19;10.45;;;2.95;;
31724;SDS011;18306;40.960;14.836;2022-07-06T03:18:46;18.48;;;3.28;;
31724;SDS011;18306;40.960;14.836;2022-07-06T03:21:13;3.42;;;2.30;;
31724;SDS011;18306;40.960;14.836;2022-07-06T03:23:40;5.88;;;3.03;;
31724;SDS011;18306;40.960;14.836;2022-07-06T03:26:07;3.47;;;1.77;;
31724;SDS011;18306;40.960;14.836;2022-07-06T03:28:34;8.80;;;3.15;;
31724;SDS011;18306;40.960;14.836;2022-07-06T03:31:01;2.92;;;2.50;;
31724;SDS011;18306;40.960;14.836;2022-07-06T03:33:28;3.55;;;2.67;;
31724;SDS011;18306;40.960;14.836;2022-07-06T03:35:55;5.00;;;3.13;;
31724;SDS011;18306;40.960;14.836;2022-07-06T03:38:23;7.30;;;3.00;;
31724;SDS011;18306;40.960;14.836;2022-07-06T03:40:50;8.10;;;2.83;;
31724;SDS011;18306;40.960;14.836;2022-07-06T03:43:17;5.18;;;2.25;;
31724;SDS011;18306;40.960;14.836;2022-07-06T03:45:44;4.60;;;2.55;;
31724;SDS011;18306;40.960;14.836;2022-07-06T03:48:11;27.00;;;3.80;;
31724;SDS011;18306;40.960;14.836;2022-07-06T03:50:42;18.48;;;3.35;;
31724;SDS011;18306;40.960;14.836;2022-07-06T03:53:10;8.80;;;3.40;;
31724;SDS011;18306;40.960;14.836;2022-07-06T03:55:37;7.05;;;2.95;;
31724;SDS011;18306;40.960;14.836;2022-07-06T03:58:07;3.20;;;2.13;;
31724;SDS011;18306;40.960;14.836;2022-07-06T04:00:37;7.72;;;2.67;;
31724;SDS011;18306;40.960;14.836;2022-07-06T04:03:09;4.53;;;2.55;;
31724;SDS011;18306;40.960;14.836;2022-07-06T04:05:46;14.68;;;2.88;;
31724;SDS011;18306;40.960;14.836;2022-07-06T04:08:23;5.65;;;2.80;;
31724;SDS011;18306;40.960;14.836;2022-07-06T04:11:00;4.47;;;2.28;;
31724;SDS011;18306;40.960;14.836;2022-07-06T04:13:36;9.95;;;2.35;;
31724;SDS011;18306;40.960;14.836;2022-07-06T04:16:10;6.00;;;2.97;;
31724;SDS011;18306;40.960;14.836;2022-07-06T04:18:47;5.13;;;3.05;;
31724;SDS011;18306;40.960;14.836;2022-07-06T04:21:17;8.68;;;3.05;;
31724;SDS011;18306;40.960;14.836;2022-07-06T04:23:44;5.57;;;2.58;;
31724;SDS011;18306;40.960;14.836;2022-07-06T04:26:12;5.22;;;2.17;;
31724;SDS011;18306;40.960;14.836;2022-07-06T04:28:39;9.95;;;3.00;;
31724;SDS011;18306;40.960;14.836;2022-07-06T04:31:06;4.18;;;2.42;;
31724;SDS011;18306;40.960;14.836;2022-07-06T04:33:34;5.93;;;2.58;;
31724;SDS011;18306;40.960;14.836;2022-07-06T04:36:01;6.45;;;2.67;;
31724;SDS011;18306;40.960;14.836;2022-07-06T04:38:36;7.40;;;2.72;;
31724;SDS011;18306;40.960;14.836;2022-07-06T04:41:06;2.60;;;2.10;;
31724;SDS011;18306;40.960;14.836;2022-07-06T04:43:33;2.50;;;2.30;;
31724;SDS011;18306;40.960;14.836;2022-07-06T04:46:00;15.80;;;3.10;;
31724;SDS011;18306;40.960;14.836;2022-07-06T04:48:28;9.88;;;2.53;;
31724;SDS011;18306;40.960;14.836;2022-07-06T04:50:56;5.25;;;3.55;;
31724;SDS011;18306;40.960;14.836;2022-07-06T04:53:27;10.82;;;3.53;;
31724;SDS011;18306;40.960;14.836;2022-07-06T04:55:55;5.70;;;3.55;;
31724;SDS011;18306;40.960;14.836;2022-07-06T04:58:23;11.10;;;4.30;;
31724;SDS011;18306;40.960;14.836;2022-07-06T05:00:50;5.13;;;2.67;;
31724;SDS011;18306;40.960;14.836;2022-07-06T05:03:17;8.10;;;3.63;;
31724;SDS011;18306;40.960;14.836;2022-07-06T05:05:44;21.52;;;3.63;;
31724;SDS011;18306;40.960;14.836;2022-07-06T05:08:11;4.30;;;2.47;;
31724;SDS011;18306;40.960;14.836;2022-07-06T05:10:39;5.97;;;3.05;;
31724;SDS011;18306;40.960;14.836;2022-07-06T05:13:07;6.10;;;2.30;;
31724;SDS011;18306;40.960;14.836;2022-07-06T05:15:34;6.72;;;2.45;;
31724;SDS011;18306;40.960;14.836;2022-07-06T05:18:01;2.83;;;2.10;;
31724;SDS011;18306;40.960;14.836;2022-07-06T05:20:28;7.97;;;2.35;;
31724;SDS011;18306;40.960;14.836;2022-07-06T05:22:57;15.43;;;3.08;;
31724;SDS011;18306;40.960;14.836;2022-07-06T05:25:28;6.60;;;2.08;;
31724;SDS011;18306;40.960;14.836;2022-07-06T05:27:57;4.10;;;2.72;;
31724;SDS011;18306;40.960;14.836;2022-07-06T05:30:25;6.28;;;2.40;;
31724;SDS011;18306;40.960;14.836;2022-07-06T05:32:52;6.68;;;2.63;;
31724;SDS011;18306;40.960;14.836;2022-07-06T05:35:19;3.88;;;1.95;;
31724;SDS011;18306;40.960;14.836;2022-07-06T05:37:46;28.08;;;3.60;;
31724;SDS011;18306;40.960;14.836;2022-07-06T05:40:13;4.70;;;2.33;;
31724;SDS011;18306;40.960;14.836;2022-07-06T05:42:41;3.08;;;2.03;;
31724;SDS011;18306;40.960;14.836;2022-07-06T05:45:08;15.88;;;2.78;;
31724;SDS011;18306;40.960;14.836;2022-07-06T05:47:35;6.90;;;2.55;;
31724;SDS011;18306;40.960;14.836;2022-07-06T05:50:21;16.55;;;2.78;;
31724;SDS011;18306;40.960;14.836;2022-07-06T05:52:59;5.03;;;1.95;;
31724;SDS011;18306;40.960;14.836;2022-07-06T05:55:29;12.20;;;3.13;;
31724;SDS011;18306;40.960;14.836;2022-07-06T05:57:58;13.50;;;1.95;;
31724;SDS011;18306;40.960;14.836;2022-07-06T06:00:28;9.80;;;2.13;;
31724;SDS011;18306;40.960;14.836;2022-07-06T06:02:59;8.27;;;2.63;;
31724;SDS011;18306;40.960;14.836;2022-07-06T06:05:26;4.43;;;2.20;;
31724;SDS011;18306;40.960;14.836;2022-07-06T06:07:58;4.72;;;2.80;;
31724;SDS011;18306;40.960;14.836;2022-07-06T06:10:26;5.90;;;2.08;;
31724;SDS011;18306;40.960;14.836;2022-07-06T06:12:57;4.75;;;3.08;;
31724;SDS011;18306;40.960;14.836;2022-07-06T06:15:25;2.60;;;2.30;;
31724;SDS011;18306;40.960;14.836;2022-07-06T06:17:52;2.90;;;2.45;;
31724;SDS011;18306;40.960;14.836;2022-07-06T06:20:19;8.32;;;2.53;;
31724;SDS011;18306;40.960;14.836;2022-07-06T06:22:50;5.07;;;2.72;;
31724;SDS011;18306;40.960;14.836;2022-07-06T06:25:29;10.13;;;2.80;;
31724;SDS011;18306;40.960;14.836;2022-07-06T06:27:57;7.25;;;3.45;;
31724;SDS011;18306;40.960;14.836;2022-07-06T06:30:24;16.30;;;3.05;;
31724;SDS011;18306;40.960;14.836;2022-07-06T06:32:52;6.88;;;3.42;;
31724;SDS011;18306;40.960;14.836;2022-07-06T06:35:31;4.60;;;2.58;;
31724;SDS011;18306;40.960;14.836;2022-07-06T06:37:58;7.38;;;2.38;;
31724;SDS011;18306;40.960;14.836;2022-07-06T06:40:25;8.05;;;3.15;;
31724;SDS011;18306;40.960;14.836;2022-07-06T06:42:52;9.95;;;1.83;;
31724;SDS011;18306;40.960;14.836;2022-07-06T06:45:19;5.03;;;1.83;;
31724;SDS011;18306;40.960;14.836;2022-07-06T06:47:46;11.50;;;2.55;;
31724;SDS011;18306;40.960;14.836;2022-07-06T06:50:15;7.63;;;2.28;;
31724;SDS011;18306;40.960;14.836;2022-07-06T06:52:49;4.95;;;2.33;;
31724;SDS011;18306;40.960;14.836;2022-07-06T06:55:17;6.78;;;2.35;;
31724;SDS011;18306;40.960;14.836;2022-07-06T06:57:44;3.38;;;2.40;;
31724;SDS011;18306;40.960;14.836;2022-07-06T07:00:12;13.60;;;3.47;;
31724;SDS011;18306;40.960;14.836;2022-07-06T07:02:40;12.38;;;4.18;;
31724;SDS011;18306;40.960;14.836;2022-07-06T07:05:07;15.70;;;3.72;;
31724;SDS011;18306;40.960;14.836;2022-07-06T07:07:34;10.55;;;3.20;;
31724;SDS011;18306;40.960;14.836;2022-07-06T07:10:03;23.45;;;4.22;;
31724;SDS011;18306;40.960;14.836;2022-07-06T07:12:32;6.95;;;3.13;;
31724;SDS011;18306;40.960;14.836;2022-07-06T07:15:00;7.80;;;3.75;;
31724;SDS011;18306;40.960;14.836;2022-07-06T07:17:27;9.50;;;3.78;;
31724;SDS011;18306;40.960;14.836;2022-07-06T07:19:54;9.60;;;3.90;;
31724;SDS011;18306;40.960;14.836;2022-07-06T07:22:23;6.57;;;3.00;;
31724;SDS011;18306;40.960;14.836;2022-07-06T07:24:50;13.38;;;4.32;;
31724;SDS011;18306;40.960;14.836;2022-07-06T07:27:18;8.75;;;3.28;;
31724;SDS011;18306;40.960;14.836;2022-07-06T07:29:45;16.40;;;3.17;;
31724;SDS011;18306;40.960;14.836;2022-07-06T07:32:12;9.30;;;2.67;;
31724;SDS011;18306;40.960;14.836;2022-07-06T07:34:39;12.45;;;2.67;;
31724;SDS011;18306;40.960;14.836;2022-07-06T07:37:07;5.13;;;2.55;;
31724;SDS011;18306;40.960;14.836;2022-07-06T07:39:34;5.80;;;2.63;;
31724;SDS011;18306;40.960;14.836;2022-07-06T07:42:01;19.75;;;2.97;;
31724;SDS011;18306;40.960;14.836;2022-07-06T07:44:28;12.93;;;3.97;;
31724;SDS011;18306;40.960;14.836;2022-07-06T07:46:55;10.13;;;4.45;;
31724;SDS011;18306;40.960;14.836;2022-07-06T07:49:27;6.72;;;2.90;;
31724;SDS011;18306;40.960;14.836;2022-07-06T07:51:54;11.65;;;3.55;;
31724;SDS011;18306;40.960;14.836;2022-07-06T07:54:22;8.70;;;2.70;;
31724;SDS011;18306;40.960;14.836;2022-07-06T07:56:49;7.45;;;2.58;;
31724;SDS011;18306;40.960;14.836;2022-07-06T07:59:17;5.63;;;2.47;;
31724;SDS011;18306;40.960;14.836;2022-07-06T08:01:46;8.90;;;2.22;;
31724;SDS011;18306;40.960;14.836;2022-07-06T08:04:14;5.10;;;2.63;;
31724;SDS011;18306;40.960;14.836;2022-07-06T08:06:43;8.07;;;2.75;;
31724;SDS011;18306;40.960;14.836;2022-07-06T08:09:15;3.20;;;2.30;;
31724;SDS011;18306;40.960;14.836;2022-07-06T08:11:44;5.50;;;1.58;;
31724;SDS011;18306;40.960;14.836;2022-07-06T08:14:11;10.05;;;2.03;;
31724;SDS011;18306;40.960;14.836;2022-07-06T08:16:40;6.32;;;1.63;;
31724;SDS011;18306;40.960;14.836;2022-07-06T08:19:08;3.88;;;1.98;;
31724;SDS011;18306;40.960;14.836;2022-07-06T08:21:35;6.32;;;2.13;;
31724;SDS011;18306;40.960;14.836;2022-07-06T08:24:04;7.47;;;2.33;;
31724;SDS011;18306;40.960;14.836;2022-07-06T08:26:33;5.00;;;1.95;;
31724;SDS011;18306;40.960;14.836;2022-07-06T08:29:00;7.30;;;1.70;;
31724;SDS011;18306;40.960;14.836;2022-07-06T08:31:28;3.75;;;1.65;;
31724;SDS011;18306;40.960;14.836;2022-07-06T08:33:55;12.68;;;2.72;;
31724;SDS011;18306;40.960;14.836;2022-07-06T08:36:22;2.83;;;1.48;;
31724;SDS011;18306;40.960;14.836;2022-07-06T08:38:50;4.57;;;1.92;;
31724;SDS011;18306;40.960;14.836;2022-07-06T08:41:17;7.13;;;2.33;;
31724;SDS011;18306;40.960;14.836;2022-07-06T08:43:47;2.45;;;1.55;;
31724;SDS011;18306;40.960;14.836;2022-07-06T08:46:15;3.40;;;1.65;;
31724;SDS011;18306;40.960;14.836;2022-07-06T08:48:49;5.72;;;1.58;;
31724;SDS011;18306;40.960;14.836;2022-07-06T08:51:28;3.80;;;1.65;;
31724;SDS011;18306;40.960;14.836;2022-07-06T08:53:58;4.88;;;1.80;;
31724;SDS011;18306;40.960;14.836;2022-07-06T08:56:26;3.33;;;1.98;;
31724;SDS011;18306;40.960;14.836;2022-07-06T08:58:55;11.25;;;1.85;;
31724;SDS011;18306;40.960;14.836;2022-07-06T09:01:22;2.78;;;1.52;;
31724;SDS011;18306;40.960;14.836;2022-07-06T09:03:50;1.85;;;1.50;;
31724;SDS011;18306;40.960;14.836;2022-07-06T09:06:26;2.03;;;1.77;;
31724;SDS011;18306;40.960;14.836;2022-07-06T09:09:04;4.10;;;1.60;;
31724;SDS011;18306;40.960;14.836;2022-07-06T09:11:39;4.82;;;2.20;;
31724;SDS011;18306;40.960;14.836;2022-07-06T09:14:19;7.88;;;1.50;;
31724;SDS011;18306;40.960;14.836;2022-07-06T09:19:38;14.60;;;1.95;;
31724;SDS011;18306;40.960;14.836;2022-07-06T09:22:26;1.25;;;1.15;;
31724;SDS011;18306;40.960;14.836;2022-07-06T09:25:14;7.18;;;2.22;;
31724;SDS011;18306;40.960;14.836;2022-07-06T09:27:59;6.22;;;1.45;;
31724;SDS011;18306;40.960;14.836;2022-07-06T09:30:34;5.68;;;2.45;;
31724;SDS011;18306;40.960;14.836;2022-07-06T09:33:06;3.20;;;1.77;;
31724;SDS011;18306;40.960;14.836;2022-07-06T09:35:38;3.95;;;2.30;;
31724;SDS011;18306;40.960;14.836;2022-07-06T09:38:06;1.95;;;1.40;;
31724;SDS011;18306;40.960;14.836;2022-07-06T09:40:40;3.67;;;1.50;;
31724;SDS011;18306;40.960;14.836;2022-07-06T09:43:17;9.48;;;2.08;;
31724;SDS011;18306;40.960;14.836;2022-07-06T09:45:46;2.88;;;1.50;;
31724;SDS011;18306;40.960;14.836;2022-07-06T09:48:22;1.55;;;1.17;;
31724;SDS011;18306;40.960;14.836;2022-07-06T09:50:52;3.03;;;1.80;;
31724;SDS011;18306;40.960;14.836;2022-07-06T09:53:22;4.28;;;1.55;;
31724;SDS011;18306;40.960;14.836;2022-07-06T09:55:51;5.05;;;2.45;;
31724;SDS011;18306;40.960;14.836;2022-07-06T09:58:22;6.35;;;1.95;;
31724;SDS011;18306;40.960;14.836;2022-07-06T10:00:49;2.97;;;1.25;;
31724;SDS011;18306;40.960;14.836;2022-07-06T10:03:17;3.55;;;1.95;;
31724;SDS011;18306;40.960;14.836;2022-07-06T10:05:45;1.30;;;1.20;;
31724;SDS011;18306;40.960;14.836;2022-07-06T10:08:14;5.15;;;1.98;;
31724;SDS011;18306;40.960;14.836;2022-07-06T10:10:42;10.00;;;1.83;;
31724;SDS011;18306;40.960;14.836;2022-07-06T10:13:11;3.15;;;1.15;;
31724;SDS011;18306;40.960;14.836;2022-07-06T10:15:40;2.22;;;1.65;;
31724;SDS011;18306;40.960;14.836;2022-07-06T10:18:09;4.70;;;2.03;;
31724;SDS011;18306;40.960;14.836;2022-07-06T10:20:37;6.53;;;1.65;;
31724;SDS011;18306;40.960;14.836;2022-07-06T10:23:06;1.90;;;1.20;;
31724;SDS011;18306;40.960;14.836;2022-07-06T10:25:34;19.42;;;2.10;;
31724;SDS011;18306;40.960;14.836;2022-07-06T10:28:02;7.20;;;1.25;;
31724;SDS011;18306;40.960;14.836;2022-07-06T10:30:40;9.18;;;2.25;;
31724;SDS011;18306;40.960;14.836;2022-07-06T10:33:09;8.07;;;1.35;;
31724;SDS011;18306;40.960;14.836;2022-07-06T10:35:40;3.03;;;1.20;;
31724;SDS011;18306;40.960;14.836;2022-07-06T10:38:09;5.20;;;1.67;;
31724;SDS011;18306;40.960;14.836;2022-07-06T10:40:38;17.20;;;1.75;;
31724;SDS011;18306;40.960;14.836;2022-07-06T10:43:31;1.92;;;1.25;;
31724;SDS011;18306;40.960;14.836;2022-07-06T10:46:04;2.38;;;1.45;;
31724;SDS011;18306;40.960;14.836;2022-07-06T10:48:45;5.57;;;2.63;;
31724;SDS011;18306;40.960;14.836;2022-07-06T10:53:57;6.13;;;1.27;;
31724;SDS011;18306;40.960;14.836;2022-07-06T10:56:37;4.00;;;1.98;;
31724;SDS011;18306;40.960;14.836;2022-07-06T10:59:09;3.20;;;1.92;;
31724;SDS011;18306;40.960;14.836;2022-07-06T11:04:42;9.77;;;1.80;;
31724;SDS011;18306;40.960;14.836;2022-07-06T11:07:14;8.85;;;1.92;;
31724;SDS011;18306;40.960;14.836;2022-07-06T11:09:55;3.75;;;1.42;;
31724;SDS011;18306;40.960;14.836;2022-07-06T11:12:26;2.40;;;1.50;;
31724;SDS011;18306;40.960;14.836;2022-07-06T11:14:54;3.40;;;1.50;;
31724;SDS011;18306;40.960;14.836;2022-07-06T11:17:23;2.50;;;1.65;;
31724;SDS011;18306;40.960;14.836;2022-07-06T11:19:57;9.63;;;1.88;;
31724;SDS011;18306;40.960;14.836;2022-07-06T11:22:36;6.88;;;1.80;;
31724;SDS011;18306;40.960;14.836;2022-07-06T11:25:06;2.90;;;1.88;;
31724;SDS011;18306;40.960;14.836;2022-07-06T11:27:36;3.42;;;1.83;;
31724;SDS011;18306;40.960;14.836;2022-07-06T11:30:06;7.80;;;1.90;;
31724;SDS011;18306;40.960;14.836;2022-07-06T11:32:38;6.70;;;1.80;;
31724;SDS011;18306;40.960;14.836;2022-07-06T11:35:05;4.13;;;1.35;;
31724;SDS011;18306;40.960;14.836;2022-07-06T11:37:33;3.72;;;2.25;;
31724;SDS011;18306;40.960;14.836;2022-07-06T11:40:06;8.73;;;2.00;;
31724;SDS011;18306;40.960;14.836;2022-07-06T11:42:34;11.90;;;1.95;;
31724;SDS011;18306;40.960;14.836;2022-07-06T11:45:02;2.70;;;1.58;;
31724;SDS011;18306;40.960;14.836;2022-07-06T11:47:31;4.68;;;2.40;;
31724;SDS011;18306;40.960;14.836;2022-07-06T11:49:59;1.88;;;1.42;;
31724;SDS011;18306;40.960;14.836;2022-07-06T11:52:28;3.72;;;1.75;;
31724;SDS011;18306;40.960;14.836;2022-07-06T11:54:57;6.60;;;3.05;;
31724;SDS011;18306;40.960;14.836;2022-07-06T11:57:29;2.65;;;1.52;;
31724;SDS011;18306;40.960;14.836;2022-07-06T11:59:58;10.45;;;2.05;;
31724;SDS011;18306;40.960;14.836;2022-07-06T12:02:38;7.10;;;3.05;;
31724;SDS011;18306;40.960;14.836;2022-07-06T12:05:05;6.10;;;1.80;;
31724;SDS011;18306;40.960;14.836;2022-07-06T12:07:34;5.55;;;2.65;;
31724;SDS011;18306;40.960;14.836;2022-07-06T12:10:02;2.80;;;1.52;;
31724;SDS011;18306;40.960;14.836;2022-07-06T12:12:30;9.02;;;1.60;;
31724;SDS011;18306;40.960;14.836;2022-07-06T12:15:00;1.88;;;1.65;;
31724;SDS011;18306;40.960;14.836;2022-07-06T12:17:31;2.50;;;1.23;;
31724;SDS011;18306;40.960;14.836;2022-07-06T12:19:59;3.72;;;1.85;;
31724;SDS011;18306;40.960;14.836;2022-07-06T12:22:26;5.20;;;1.77;;
31724;SDS011;18306;40.960;14.836;2022-07-06T12:24:53;2.35;;;1.25;;
31724;SDS011;18306;40.960;14.836;2022-07-06T12:27:20;7.35;;;2.42;;
31724;SDS011;18306;40.960;14.836;2022-07-06T12:29:47;3.47;;;1.65;;
31724;SDS011;18306;40.960;14.836;2022-07-06T12:32:17;2.13;;;1.42;;
31724;SDS011;18306;40.960;14.836;2022-07-06T12:34:45;3.05;;;1.50;;
31724;SDS011;18306;40.960;14.836;2022-07-06T12:37:13;4.80;;;1.77;;
31724;SDS011;18306;40.960;14.836;2022-07-06T12:39:43;5.60;;;1.40;;
31724;SDS011;18306;40.960;14.836;2022-07-06T12:42:15;2.72;;;1.63;;
31724;SDS011;18306;40.960;14.836;2022-07-06T12:44:45;4.75;;;2.03;;
31724;SDS011;18306;40.960;14.836;2022-07-06T12:47:21;3.58;;;2.00;;
31724;SDS011;18306;40.960;14.836;2022-07-06T12:50:05;4.97;;;1.52;;
31724;SDS011;18306;40.960;14.836;2022-07-06T12:52:37;3.47;;;1.45;;
31724;SDS011;18306;40.960;14.836;2022-07-06T12:55:08;3.58;;;2.30;;
31724;SDS011;18306;40.960;14.836;2022-07-06T12:57:42;4.78;;;1.55;;
31724;SDS011;18306;40.960;14.836;2022-07-06T13:00:15;2.30;;;1.38;;
31724;SDS011;18306;40.960;14.836;2022-07-06T13:02:47;6.25;;;1.40;;
31724;SDS011;18306;40.960;14.836;2022-07-06T13:08:25;3.80;;;1.75;;
31724;SDS011;18306;40.960;14.836;2022-07-06T13:10:55;2.83;;;1.50;;
31724;SDS011;18306;40.960;14.836;2022-07-06T13:13:22;3.85;;;1.70;;
31724;SDS011;18306;40.960;14.836;2022-07-06T13:15:53;14.35;;;1.75;;
31724;SDS011;18306;40.960;14.836;2022-07-06T13:18:20;1.25;;;1.08;;
31724;SDS011;18306;40.960;14.836;2022-07-06T13:20:52;2.33;;;1.25;;
31724;SDS011;18306;40.960;14.836;2022-07-06T13:23:20;2.30;;;1.42;;
31724;SDS011;18306;40.960;14.836;2022-07-06T13:25:47;2.10;;;0.88;;
31724;SDS011;18306;40.960;14.836;2022-07-06T13:28:15;3.00;;;1.48;;
31724;SDS011;18306;40.960;14.836;2022-07-06T13:30:46;3.83;;;1.70;;
31724;SDS011;18306;40.960;14.836;2022-07-06T13:33:13;7.85;;;1.30;;
31724;SDS011;18306;40.960;14.836;2022-07-06T13:35:39;5.93;;;1.20;;
31724;SDS011;18306;40.960;14.836;2022-07-06T13:38:11;4.85;;;1.45;;
31724;SDS011;18306;40.960;14.836;2022-07-06T13:40:38;11.50;;;1.40;;
31724;SDS011;18306;40.960;14.836;2022-07-06T13:43:09;3.47;;;1.48;;
31724;SDS011;18306;40.960;14.836;2022-07-06T13:45:36;7.88;;;1.98;;
31724;SDS011;18306;40.960;14.836;2022-07-06T13:48:03;5.22;;;1.60;;
31724;SDS011;18306;40.960;14.836;2022-07-06T13:50:34;2.20;;;1.40;;
31724;SDS011;18306;40.960;14.836;2022-07-06T13:53:01;1.90;;;1.48;;
31724;SDS011;18306;40.960;14.836;2022-07-06T13:55:28;5.63;;;1.40;;
31724;SDS011;18306;40.960;14.836;2022-07-06T13:57:57;3.63;;;1.45;;
31724;SDS011;18306;40.960;14.836;2022-07-06T14:00:24;7.32;;;1.77;;
31724;SDS011;18306;40.960;14.836;2022-07-06T14:02:52;7.97;;;1.52;;
31724;SDS011;18306;40.960;14.836;2022-07-06T14:05:30;4.20;;;1.17;;
31724;SDS011;18306;40.960;14.836;2022-07-06T14:07:57;2.25;;;1.42;;
31724;SDS011;18306;40.960;14.836;2022-07-06T14:10:24;2.95;;;1.52;;
31724;SDS011;18306;40.960;14.836;2022-07-06T14:12:51;4.53;;;1.80;;
31724;SDS011;18306;40.960;14.836;2022-07-06T14:15:22;9.68;;;1.95;;
31724;SDS011;18306;40.960;14.836;2022-07-06T14:17:49;2.28;;;1.67;;
31724;SDS011;18306;40.960;14.836;2022-07-06T14:20:16;2.83;;;1.88;;
31724;SDS011;18306;40.960;14.836;2022-07-06T14:22:44;9.35;;;1.83;;
31724;SDS011;18306;40.960;14.836;2022-07-06T14:25:11;9.75;;;1.17;;
31724;SDS011;18306;40.960;14.836;2022-07-06T14:35:11;6.72;;;1.50;;
31724;SDS011;18306;40.960;14.836;2022-07-06T14:37:38;2.88;;;1.23;;
31724;SDS011;18306;40.960;14.836;2022-07-06T14:43:41;2.28;;;1.55;;
31724;SDS011;18306;40.960;14.836;2022-07-06T14:46:09;4.57;;;1.70;;
31724;SDS011;18306;40.960;14.836;2022-07-06T14:48:36;3.95;;;1.85;;
31724;SDS011;18306;40.960;14.836;2022-07-06T14:51:03;2.08;;;1.50;;
31724;SDS011;18306;40.960;14.836;2022-07-06T14:53:30;1.23;;;1.13;;
31724;SDS011;18306;40.960;14.836;2022-07-06T14:55:57;5.38;;;1.13;;
31724;SDS011;18306;40.960;14.836;2022-07-06T14:58:24;2.03;;;1.58;;
31724;SDS011;18306;40.960;14.836;2022-07-06T15:05:35;3.33;;;1.65;;
31724;SDS011;18306;40.960;14.836;2022-07-06T15:08:04;6.43;;;1.13;;
31724;SDS011;18306;40.960;14.836;2022-07-06T15:15:12;2.33;;;1.75;;
31724;SDS011;18306;40.960;14.836;2022-07-06T15:17:39;13.10;;;1.73;;